Ambition — YS570Q — position and weather

sailwx.info

Track history (hours):
 
Tides and Currents Weather Stations Pressure Air Temp Water Temp Dewpoint Dewpoint Depression Visibility Wind Speed Wind Dir Waves Ship Positions

Ambition

Last reported at 2018-Jun-25 00:04 UTC. Time now 2018-Jul-18 10:07 UTC.
Position S 27°31' E 153°24'.
Warning: this ship's position is 23 days out of date.

Length 12 m.

Type: Sailing vessel. MMSI: 503052730.

Date/timePositionNaut miles runAvg speedWind from/ knotsBaromVisibWave heightAir tempDewpointWater temp
2018-Jun-25 00:04S 27°31' E 153°24'0 0.1
2018-Jun-24 20:28S 27°31' E 153°24'0 0.0
2018-Jun-24 19:58S 27°31' E 153°24'0 0.0
2018-Jun-24 19:19S 27°31' E 153°24'0 0.0
2018-Jun-24 18:43S 27°31' E 153°24'0 0.0
2018-Jun-24 18:28S 27°31' E 153°24'0 0.0
2018-Jun-24 17:58S 27°31' E 153°24'0 0.0
2018-Jun-24 17:25S 27°31' E 153°24'0 0.0
2018-Jun-24 16:52S 27°31' E 153°24'0 0.1
2018-Jun-24 16:28S 27°31' E 153°25'0 0.1
2018-Jun-24 15:52S 27°31' E 153°24'0 0.0
2018-Jun-24 15:28S 27°31' E 153°24'0 0.0
2018-Jun-24 14:58S 27°31' E 153°24'0 0.0
2018-Jun-24 14:22S 27°31' E 153°24'0 0.0
2018-Jun-24 13:58S 27°31' E 153°24'0 0.0
2018-Jun-24 13:28S 27°31' E 153°24'0 0.0
2018-Jun-24 12:58S 27°31' E 153°24'0 0.0
2018-Jun-24 12:28S 27°31' E 153°24'0 0.0
2018-Jun-24 11:55S 27°31' E 153°24'0 0.0
2018-Jun-24 11:25S 27°31' E 153°24'0 0.0
2018-Jun-24 10:58S 27°31' E 153°24'0 0.0
2018-Jun-24 10:28S 27°31' E 153°24'0 0.0
2018-Jun-24 09:55S 27°31' E 153°24'0 0.0
2018-Jun-24 09:28S 27°31' E 153°24'0 0.0
2018-Jun-24 08:49S 27°31' E 153°24'0 0.0
2018-Jun-24 08:25S 27°31' E 153°24'0 0.0
2018-Jun-24 07:55S 27°31' E 153°24'0 0.0
2018-Jun-24 07:25S 27°31' E 153°24'0 0.0
2018-Jun-24 06:52S 27°31' E 153°24'0 0.0
2018-Jun-24 06:25S 27°31' E 153°24'0 0.6
2018-Jun-24 06:00S 27°31' E 153°24'2 4.4
2018-Jun-24 05:28S 27°30' E 153°22'0 0.0
2018-Jun-24 04:52S 27°30' E 153°22'1 2.9
2018-Jun-24 04:30S 27°31' E 153°21'  
2018-Jun-17 04:39S 27°30' E 153°19'1 8.0
2018-Jun-17 04:30S 27°31' E 153°19'2 3.6
2018-Jun-17 03:58S 27°31' E 153°22'0 0.2
2018-Jun-17 02:16S 27°30' E 153°22'0 0.0
2018-Jun-17 01:58S 27°30' E 153°22'1 1.8
2018-Jun-17 01:30S 27°30' E 153°23'5 0.1
2018-Jun-15 04:17S 27°29' E 153°17'3 8.8
2018-Jun-15 03:59S 27°31' E 153°20'2 3.2
2018-Jun-15 03:21S 27°30' E 153°22'0 0.0
2018-Jun-15 03:00S 27°30' E 153°22'0 0.0
2018-Jun-15 02:30S 27°30' E 153°22'0 0.0
2018-Jun-15 02:00S 27°30' E 153°22'2 4.5
2018-Jun-15 01:28S 27°31' E 153°19'  
Track history (hours):
 
Tides and Currents Weather Stations Pressure Air Temp Water Temp Dewpoint Dewpoint Depression Visibility Wind Speed Wind Dir Waves Ship Positions

Ambition

Last reported at 2018-Jun-25 00:04 UTC. Time now 2018-Jul-18 10:07 UTC.
Position S 27°31' E 153°24'.
Warning: this ship's position is 23 days out of date.

Length 12 m.

Type: Sailing vessel. MMSI: 503052730.

Date/timePositionNaut miles runAvg speedWind from/ knotsBaromVisibWave heightAir tempDewpointWater temp
2018-Jun-25 00:04S 27°31' E 153°24'0 0.1
2018-Jun-24 20:28S 27°31' E 153°24'0 0.0
2018-Jun-24 19:58S 27°31' E 153°24'0 0.0
2018-Jun-24 19:19S 27°31' E 153°24'0 0.0
2018-Jun-24 18:43S 27°31' E 153°24'0 0.0
2018-Jun-24 18:28S 27°31' E 153°24'0 0.0
2018-Jun-24 17:58S 27°31' E 153°24'0 0.0
2018-Jun-24 17:25S 27°31' E 153°24'0 0.0
2018-Jun-24 16:52S 27°31' E 153°24'0 0.1
2018-Jun-24 16:28S 27°31' E 153°25'0 0.1
2018-Jun-24 15:52S 27°31' E 153°24'0 0.0
2018-Jun-24 15:28S 27°31' E 153°24'0 0.0
2018-Jun-24 14:58S 27°31' E 153°24'0 0.0
2018-Jun-24 14:22S 27°31' E 153°24'0 0.0
2018-Jun-24 13:58S 27°31' E 153°24'0 0.0
2018-Jun-24 13:28S 27°31' E 153°24'0 0.0
2018-Jun-24 12:58S 27°31' E 153°24'0 0.0
2018-Jun-24 12:28S 27°31' E 153°24'0 0.0
2018-Jun-24 11:55S 27°31' E 153°24'0 0.0
2018-Jun-24 11:25S 27°31' E 153°24'0 0.0
2018-Jun-24 10:58S 27°31' E 153°24'0 0.0
2018-Jun-24 10:28S 27°31' E 153°24'0 0.0
2018-Jun-24 09:55S 27°31' E 153°24'0 0.0
2018-Jun-24 09:28S 27°31' E 153°24'0 0.0
2018-Jun-24 08:49S 27°31' E 153°24'0 0.0
2018-Jun-24 08:25S 27°31' E 153°24'0 0.0
2018-Jun-24 07:55S 27°31' E 153°24'0 0.0
2018-Jun-24 07:25S 27°31' E 153°24'0 0.0
2018-Jun-24 06:52S 27°31' E 153°24'0 0.0
2018-Jun-24 06:25S 27°31' E 153°24'0 0.6
2018-Jun-24 06:00S 27°31' E 153°24'2 4.4
2018-Jun-24 05:28S 27°30' E 153°22'0 0.0
2018-Jun-24 04:52S 27°30' E 153°22'1 2.9
2018-Jun-24 04:30S 27°31' E 153°21'  
2018-Jun-17 04:39S 27°30' E 153°19'1 8.0
2018-Jun-17 04:30S 27°31' E 153°19'2 3.6
2018-Jun-17 03:58S 27°31' E 153°22'0 0.2
2018-Jun-17 02:16S 27°30' E 153°22'0 0.0
2018-Jun-17 01:58S 27°30' E 153°22'1 1.8
2018-Jun-17 01:30S 27°30' E 153°23'5 0.1
2018-Jun-15 04:17S 27°29' E 153°17'3 8.8
2018-Jun-15 03:59S 27°31' E 153°20'2 3.2
2018-Jun-15 03:21S 27°30' E 153°22'0 0.0
2018-Jun-15 03:00S 27°30' E 153°22'0 0.0
2018-Jun-15 02:30S 27°30' E 153°22'0 0.0
2018-Jun-15 02:00S 27°30' E 153°22'2 4.5
2018-Jun-15 01:28S 27°31' E 153°19'  

Dump ship's entire track history